ADDS METAR Data INFO
IDs: Format: Raw Decoded Include TAF

Data at: 2251 UTC 22 Jun 2018

KMBS 222153Z 04014KT 10SM OVC120 20/13 A2982 RMK AO2 SLP096 T02000128
KMBS 222053Z 05016G22KT 10SM FEW120 22/13 A2982 RMK AO2 SLP097 T02170128 56010
KMBS 221953Z 03017KT 10SM CLR 23/13 A2982 RMK AO2 SLP097 T02280133
KMBS 221853Z 04017KT 10SM CLR 24/13 A2984 RMK AO2 SLP101 T02390133
KMBS 221753Z 06016G23KT 10SM CLR 22/13 A2985 RMK AO2 SLP107 T02220133 10222 20167 58013
KMBS 221653Z 04013KT 10SM CLR 21/13 A2988 RMK AO2 SLP116 T02060133
KMBS 221553Z 05010KT 10SM CLR 20/11 A2990 RMK AO2 SLP123 T02000111
KMBS 221453Z 05011KT 10SM CLR 19/10 A2989 RMK AO2 SLP121 T01940100 58000
KMBS 221353Z 06011KT 10SM CLR 18/09 A2990 RMK AO2 SLP122 T01830089
KMBS 221253Z 06008KT 10SM CLR 18/09 A2989 RMK AO2 SLP120 T01780089
KMBS 221153Z 07008KT 10SM CLR 17/09 A2989 RMK AO2 SLP121 T01670094 10167 20144 53003
KMBS 221053Z 06008KT 10SM CLR 16/09 A2988 RMK AO2 SLP118 T01610094
KMBS 220953Z 04008KT 10SM CLR 14/10 A2988 RMK AO2 SLP117 T01440100
KMBS 220853Z AUTO 05006KT 10SM CLR 14/10 A2988 RMK AO2 SLP118 T01440100 56006
KMBS 220753Z AUTO 08007KT 10SM CLR 16/10 A2989 RMK AO2 SLP119 T01560100
KMBS 220653Z AUTO 05008KT 10SM CLR 17/12 A2989 RMK AO2 SLP120 T01670117
KMBS 220553Z AUTO 05008KT 10SM CLR 16/11 A2990 RMK AO2 SLP124 T01610111 10172 20156 58006
KMBS 220453Z AUTO 05007KT 10SM CLR 16/11 A2991 RMK AO2 SLP128 T01610106 402110133
KMBS 220353Z AUTO 05009KT 10SM CLR 16/11 A2992 RMK AO2 SLP131 T01610111
KMBS 220253Z AUTO 05009KT 10SM CLR 16/11 A2992 RMK AO2 SLP131 T01610106 51008
KMBS 220153Z 05010KT 10SM CLR 16/11 A2992 RMK AO2 SLP130 T01610106
KMBS 220053Z 05013KT 10SM CLR 17/11 A2991 RMK AO2 SLP126 T01670106
KMBS 212353Z 04016KT 10SM CLR 17/11 A2990 RMK AO2 SLP123 T01720111 10211 20172 58001
KMBS 212253Z 04019KT 10SM CLR 18/12 A2990 RMK AO2 PK WND 04026/2223 SLP124 T01830117
KMBS 212153Z 04017KT 10SM CLR 18/12 A2990 RMK AO2 PK WND 04026/2127 SLP126 T01780117
KMBS 212053Z 05020KT 10SM CLR 18/13 A2990 RMK AO2 PK WND 03026/2020 SLP123 T01830128 55007
KMBS 211953Z 04019KT 10SM CLR 20/14 A2989 RMK AO2 PK WND 05026/1931 SLP121 T02000139
KMBS 211853Z 04016G24KT 10SM CLR 21/14 A2991 RMK AO2 SLP126 T02060139
KMBS 211753Z 03017KT 10SM CLR 21/14 A2992 RMK AO2 SLP131 T02060139 10206 20178 58005
KMBS 211653Z 03013KT 10SM CLR 21/14 A2993 RMK AO2 SLP135 T02060144
KMBS 211553Z 03016KT 10SM CLR 20/14 A2993 RMK AO2 SLP133 T02000144
KMBS 211453Z 05012KT 10SM CLR 19/14 A2993 RMK AO2 SLP135 T01940144 53005
KMBS 211353Z 05013KT 10SM CLR 20/15 A2992 RMK AO2 SLP131 T02000150
KMBS 211253Z 04010KT 10SM CLR 19/16 A2993 RMK AO2 SLP130 T01940156
KMBS 211153Z 08007KT 10SM CLR 18/13 A2992 RMK AO2 SLP128 T01780133 10178 20133 53014
KMBS 211053Z 05003KT 10SM CLR 15/13 A2990 RMK AO2 SLP122 T01500128